Time;durP1;ratioP1;P1;durP2;ratioP2;P2;SDS_P1;SDS_P2;PMS_P1;PMS_P2;Temp;Humidity;BMP_temperature;BMP_pressure;BME280_temperature;BME280_humidity;BME280_pressure;Samples;Min_cycle;Max_cycle;Signal;HPM_P1;HPM_P2
2020/12/06 00:00:21;;;;;;;19.45;17.42;;;;;;;;;;5055803;28;20028;-70
2020/12/06 00:02:46;;;;;;;22.40;19.67;;;;;;;;;;5055408;28;20033;-71
2020/12/06 00:05:11;;;;;;;20.27;17.95;;;;;;;;;;5055684;28;20331;-72
2020/12/06 00:07:37;;;;;;;20.83;18.10;;;;;;;;;;5055158;28;20040;-71
2020/12/06 00:10:10;;;;;;;20.42;18.33;;;;;;;;;;5054978;28;20020;-68
2020/12/06 00:12:39;;;;;;;25.30;18.92;;;;;;;;;;5054786;28;20014;-68
2020/12/06 00:15:06;;;;;;;22.35;19.33;;;;;;;;;;5055085;28;20020;-68
2020/12/06 00:17:31;;;;;;;21.10;17.65;;;;;;;;;;5054827;28;20025;-69
2020/12/06 00:19:56;;;;;;;21.47;19.17;;;;;;;;;;5054919;28;20378;-69
2020/12/06 00:22:21;;;;;;;20.80;18.08;;;;;;;;;;5054621;28;20259;-71
2020/12/06 00:24:47;;;;;;;19.17;17.05;;;;;;;;;;5053409;28;20021;-68
2020/12/06 00:27:12;;;;;;;20.45;18.23;;;;;;;;;;5054573;28;20029;-67
2020/12/06 00:29:37;;;;;;;20.70;17.58;;;;;;;;;;5053942;28;20052;-71
2020/12/06 00:32:02;;;;;;;19.95;17.58;;;;;;;;;;5054748;28;20013;-68
2020/12/06 00:34:27;;;;;;;19.60;17.50;;;;;;;;;;5055246;28;20024;-70
2020/12/06 00:36:53;;;;;;;21.23;17.52;;;;;;;;;;5055120;28;20013;-71
2020/12/06 00:39:18;;;;;;;20.38;17.95;;;;;;;;;;5055147;28;20017;-68
2020/12/06 00:41:44;;;;;;;20.63;17.77;;;;;;;;;;5054408;28;20104;-68
2020/12/06 00:44:09;;;;;;;17.70;15.73;;;;;;;;;;5054554;28;20021;-69
2020/12/06 00:46:34;;;;;;;20.77;17.53;;;;;;;;;;5054804;28;20020;-71
2020/12/06 00:48:59;;;;;;;22.58;18.17;;;;;;;;;;5054887;28;20264;-68
2020/12/06 00:51:24;;;;;;;19.42;17.27;;;;;;;;;;5054475;28;20025;-71
2020/12/06 00:53:50;;;;;;;18.60;16.70;;;;;;;;;;5055027;28;20009;-72
2020/12/06 00:56:16;;;;;;;21.48;17.70;;;;;;;;;;5054741;28;20254;-70
2020/12/06 00:58:41;;;;;;;20.35;17.85;;;;;;;;;;5054404;28;20024;-71
2020/12/06 01:01:06;;;;;;;20.80;17.17;;;;;;;;;;5054158;28;20037;-70
2020/12/06 01:03:31;;;;;;;19.70;17.70;;;;;;;;;;5053693;28;20100;-70
2020/12/06 01:05:56;;;;;;;19.83;17.73;;;;;;;;;;5054129;28;20286;-71
2020/12/06 01:08:21;;;;;;;19.93;17.87;;;;;;;;;;5053578;28;20266;-69
2020/12/06 01:10:47;;;;;;;19.73;17.67;;;;;;;;;;5055861;28;20366;-69
2020/12/06 01:13:12;;;;;;;20.27;17.95;;;;;;;;;;5057713;28;20259;-69
2020/12/06 01:15:37;;;;;;;20.67;17.13;;;;;;;;;;5053725;28;20044;-69
2020/12/06 01:18:02;;;;;;;18.67;16.60;;;;;;;;;;5053663;28;20017;-72
2020/12/06 01:20:27;;;;;;;19.67;17.52;;;;;;;;;;5053716;28;20327;-70
2020/12/06 01:22:53;;;;;;;19.47;17.37;;;;;;;;;;5053363;28;20083;-70
2020/12/06 01:25:18;;;;;;;20.67;18.57;;;;;;;;;;5052106;28;20272;-68
2020/12/06 01:27:43;;;;;;;20.27;17.20;;;;;;;;;;5052005;28;20321;-69
2020/12/06 01:30:08;;;;;;;20.40;18.23;;;;;;;;;;5053642;28;20389;-69
2020/12/06 01:32:33;;;;;;;19.92;17.83;;;;;;;;;;5053358;28;20251;-69
2020/12/06 01:34:59;;;;;;;21.23;19.02;;;;;;;;;;5053923;28;20408;-69
2020/12/06 01:37:25;;;;;;;21.70;19.27;;;;;;;;;;5054149;28;20043;-71
2020/12/06 01:39:50;;;;;;;23.23;19.90;;;;;;;;;;5053957;28;20463;-72
2020/12/06 01:42:15;;;;;;;23.10;19.38;;;;;;;;;;5054429;28;20286;-71
2020/12/06 01:44:41;;;;;;;21.13;18.65;;;;;;;;;;5053393;28;20379;-70
2020/12/06 01:47:06;;;;;;;23.83;18.93;;;;;;;;;;5053341;28;20144;-69
2020/12/06 01:49:35;;;;;;;21.50;19.17;;;;;;;;;;5053433;28;20405;-69
2020/12/06 01:52:01;;;;;;;21.83;19.42;;;;;;;;;;5052936;28;20017;-68
2020/12/06 01:54:27;;;;;;;20.30;17.85;;;;;;;;;;5053181;28;20338;-70
2020/12/06 01:56:52;;;;;;;20.95;18.67;;;;;;;;;;5052999;28;20025;-68
2020/12/06 01:59:17;;;;;;;23.43;20.00;;;;;;;;;;5052895;28;20028;-67
2020/12/06 02:01:52;;;;;;;22.00;18.65;;;;;;;;;;5052385;28;20254;-70
2020/12/06 02:04:17;;;;;;;21.75;17.63;;;;;;;;;;5053137;28;20104;-67
2020/12/06 02:06:43;;;;;;;20.25;18.15;;;;;;;;;;5053014;28;20529;-67
2020/12/06 02:09:08;;;;;;;20.20;18.13;;;;;;;;;;5053363;28;20021;-72
2020/12/06 02:11:34;;;;;;;22.58;20.30;;;;;;;;;;5052562;28;20106;-72
2020/12/06 02:14:00;;;;;;;24.60;19.77;;;;;;;;;;5051226;28;20036;-70
2020/12/06 02:16:25;;;;;;;21.73;18.50;;;;;;;;;;5052624;28;20020;-71
2020/12/06 02:18:50;;;;;;;24.70;22.02;;;;;;;;;;5053190;28;20025;-70
2020/12/06 02:21:15;;;;;;;21.35;18.75;;;;;;;;;;5052409;28;20025;-69
2020/12/06 02:23:41;;;;;;;22.10;18.08;;;;;;;;;;5052356;28;20017;-69
2020/12/06 02:26:06;;;;;;;21.10;18.80;;;;;;;;;;5052173;28;20111;-70
2020/12/06 02:28:31;;;;;;;21.92;19.50;;;;;;;;;;5052595;28;20038;-69
2020/12/06 02:30:56;;;;;;;23.47;19.10;;;;;;;;;;5052284;28;20021;-67
2020/12/06 02:33:21;;;;;;;22.50;20.02;;;;;;;;;;5052239;28;20819;-68
2020/12/06 02:35:46;;;;;;;21.13;18.80;;;;;;;;;;5053070;28;20025;-68
2020/12/06 02:38:12;;;;;;;21.80;19.03;;;;;;;;;;5052481;28;20036;-70
2020/12/06 02:40:37;;;;;;;19.45;17.15;;;;;;;;;;5052363;28;20247;-72
2020/12/06 02:43:02;;;;;;;20.92;18.23;;;;;;;;;;5051910;28;20104;-68
2020/12/06 02:45:27;;;;;;;22.47;18.77;;;;;;;;;;5052100;28;20024;-69
2020/12/06 02:47:52;;;;;;;22.33;19.57;;;;;;;;;;5052452;28;20350;-71
2020/12/06 02:50:17;;;;;;;25.90;20.13;;;;;;;;;;5057485;28;21307;-69
2020/12/06 02:52:43;;;;;;;25.20;19.13;;;;;;;;;;5071834;28;20682;-70
2020/12/06 02:55:08;;;;;;;23.07;19.43;;;;;;;;;;5072821;28;20517;-69
2020/12/06 02:57:33;;;;;;;23.85;20.02;;;;;;;;;;5072503;28;20274;-71
2020/12/06 02:59:58;;;;;;;23.50;20.23;;;;;;;;;;5072399;28;20381;-73
2020/12/06 03:02:23;;;;;;;20.97;18.83;;;;;;;;;;5072023;28;20052;-73
2020/12/06 03:04:48;;;;;;;21.58;19.33;;;;;;;;;;5072509;28;20269;-73
2020/12/06 03:07:14;;;;;;;22.80;19.10;;;;;;;;;;5072310;28;20035;-72
2020/12/06 03:09:39;;;;;;;21.27;18.98;;;;;;;;;;5072590;28;20650;-70
2020/12/06 03:12:04;;;;;;;21.90;19.60;;;;;;;;;;5071774;28;20021;-70
2020/12/06 03:14:30;;;;;;;21.30;18.65;;;;;;;;;;5072187;28;20265;-72
2020/12/06 03:16:55;;;;;;;21.27;18.98;;;;;;;;;;5072294;28;20023;-72
2020/12/06 03:19:20;;;;;;;23.73;18.88;;;;;;;;;;5072208;28;20016;-72
2020/12/06 03:21:45;;;;;;;22.13;18.17;;;;;;;;;;5072111;28;20036;-69
2020/12/06 03:24:10;;;;;;;20.35;18.13;;;;;;;;;;5072221;28;20606;-71
2020/12/06 03:26:36;;;;;;;21.00;18.23;;;;;;;;;;5071601;28;20255;-71
2020/12/06 03:29:01;;;;;;;21.42;18.98;;;;;;;;;;5071888;28;20133;-72
2020/12/06 03:31:26;;;;;;;21.77;18.63;;;;;;;;;;5071501;28;20382;-69
2020/12/06 03:33:51;;;;;;;24.42;19.00;;;;;;;;;;5072054;28;20263;-69
2020/12/06 03:36:16;;;;;;;20.93;18.10;;;;;;;;;;5071706;28;20023;-70
2020/12/06 03:38:41;;;;;;;19.87;17.77;;;;;;;;;;5071561;28;20270;-70
2020/12/06 03:41:07;;;;;;;20.25;17.30;;;;;;;;;;5072133;28;20318;-71
2020/12/06 03:43:32;;;;;;;20.07;17.37;;;;;;;;;;5071421;28;20033;-68
2020/12/06 03:45:57;;;;;;;18.33;16.52;;;;;;;;;;5073427;28;20374;-69
2020/12/06 03:48:22;;;;;;;18.80;16.90;;;;;;;;;;5076236;28;20031;-70
2020/12/06 03:50:48;;;;;;;19.15;16.63;;;;;;;;;;5075240;28;20424;-67
2020/12/06 03:53:13;;;;;;;18.67;16.73;;;;;;;;;;5071747;28;20020;-71
2020/12/06 03:55:38;;;;;;;18.70;15.83;;;;;;;;;;5071425;28;20265;-75
2020/12/06 03:58:07;;;;;;;18.97;16.90;;;;;;;;;;5071614;28;20401;-68
2020/12/06 04:00:32;;;;;;;19.35;17.02;;;;;;;;;;5071755;28;20255;-68
2020/12/06 04:02:57;;;;;;;18.73;16.73;;;;;;;;;;5071359;28;20031;-70
2020/12/06 04:05:23;;;;;;;18.40;16.47;;;;;;;;;;5074777;28;20292;-72
2020/12/06 04:07:49;;;;;;;20.40;18.30;;;;;;;;;;5075040;28;20271;-71
2020/12/06 04:10:14;;;;;;;20.15;17.75;;;;;;;;;;5075252;28;20031;-67
2020/12/06 04:12:40;;;;;;;18.60;16.48;;;;;;;;;;5075603;28;20027;-68
2020/12/06 04:15:05;;;;;;;22.10;18.13;;;;;;;;;;5075499;28;20017;-69
2020/12/06 04:17:30;;;;;;;19.80;17.88;;;;;;;;;;5075208;28;20059;-66
2020/12/06 04:19:55;;;;;;;19.83;17.65;;;;;;;;;;5075107;28;20484;-65
2020/12/06 04:22:21;;;;;;;20.87;18.73;;;;;;;;;;5073451;28;20345;-69
2020/12/06 04:24:46;;;;;;;20.23;18.10;;;;;;;;;;5075072;28;20316;-66
2020/12/06 04:27:11;;;;;;;20.38;18.27;;;;;;;;;;5074847;28;20020;-67
2020/12/06 04:29:36;;;;;;;20.27;18.10;;;;;;;;;;5074838;28;20377;-65
2020/12/06 04:32:01;;;;;;;20.83;18.60;;;;;;;;;;5074575;28;20362;-69
2020/12/06 04:34:27;;;;;;;20.90;18.80;;;;;;;;;;5074891;28;20021;-69
2020/12/06 04:36:52;;;;;;;22.40;18.13;;;;;;;;;;5074622;28;20036;-68
2020/12/06 04:39:17;;;;;;;20.10;17.93;;;;;;;;;;5074538;28;20342;-69
2020/12/06 04:41:42;;;;;;;19.40;17.40;;;;;;;;;;5074276;28;20270;-67
2020/12/06 04:44:08;;;;;;;21.13;18.47;;;;;;;;;;5073295;28;20247;-67
2020/12/06 04:46:36;;;;;;;19.65;17.63;;;;;;;;;;5074441;28;20247;-67
2020/12/06 04:49:04;;;;;;;20.40;17.25;;;;;;;;;;5074535;28;20464;-66
2020/12/06 04:51:33;;;;;;;19.95;17.85;;;;;;;;;;5073820;28;20028;-70
2020/12/06 04:54:02;;;;;;;20.40;18.27;;;;;;;;;;5074348;28;20052;-69
2020/12/06 04:56:30;;;;;;;18.52;16.52;;;;;;;;;;5074384;28;20062;-68
2020/12/06 04:58:57;;;;;;;18.30;16.48;;;;;;;;;;5075778;28;20362;-66
2020/12/06 05:01:23;;;;;;;20.27;17.08;;;;;;;;;;5075768;28;20044;-65
2020/12/06 05:03:53;;;;;;;19.77;16.77;;;;;;;;;;5074376;28;20458;-68
2020/12/06 05:06:19;;;;;;;17.90;15.93;;;;;;;;;;5073945;28;20063;-67
2020/12/06 05:08:44;;;;;;;19.20;17.20;;;;;;;;;;5074189;28;20033;-66
2020/12/06 05:11:10;;;;;;;18.33;16.52;;;;;;;;;;5074014;28;20021;-67
2020/12/06 05:13:35;;;;;;;19.55;17.27;;;;;;;;;;5073711;28;20017;-67
2020/12/06 05:16:05;;;;;;;17.57;15.67;;;;;;;;;;5073917;28;20142;-68
2020/12/06 05:18:31;;;;;;;18.48;16.60;;;;;;;;;;5074470;28;20255;-69
2020/12/06 05:20:56;;;;;;;19.48;17.35;;;;;;;;;;5073730;28;20016;-71
2020/12/06 05:23:21;;;;;;;17.37;15.67;;;;;;;;;;5073476;28;20114;-67
2020/12/06 05:25:46;;;;;;;17.92;16.13;;;;;;;;;;5073783;28;20370;-67
2020/12/06 05:28:12;;;;;;;18.83;16.83;;;;;;;;;;5074134;28;20124;-68
2020/12/06 05:30:40;;;;;;;18.02;15.85;;;;;;;;;;5074023;28;20024;-67
2020/12/06 05:33:05;;;;;;;20.08;17.65;;;;;;;;;;5074649;28;20421;-69
2020/12/06 05:35:31;;;;;;;20.13;18.02;;;;;;;;;;5076519;28;20019;-68
2020/12/06 05:37:56;;;;;;;20.93;18.70;;;;;;;;;;5076903;28;20052;-69
2020/12/06 05:40:21;;;;;;;19.92;17.70;;;;;;;;;;5076480;28;20263;-65
2020/12/06 05:42:46;;;;;;;19.57;17.47;;;;;;;;;;5073888;28;20195;-68
2020/12/06 05:45:12;;;;;;;18.42;16.48;;;;;;;;;;5073031;28;20708;-66
2020/12/06 05:47:37;;;;;;;19.35;17.45;;;;;;;;;;5073398;28;20024;-65
2020/12/06 05:50:03;;;;;;;17.95;16.13;;;;;;;;;;5072946;28;20543;-68
2020/12/06 05:52:29;;;;;;;19.95;17.85;;;;;;;;;;5073146;28;20107;-69
2020/12/06 05:54:55;;;;;;;19.08;15.98;;;;;;;;;;5073181;28;20092;-66
2020/12/06 05:57:22;;;;;;;19.50;17.60;;;;;;;;;;5074389;28;20051;-68
2020/12/06 05:59:47;;;;;;;18.50;16.70;;;;;;;;;;5074529;28;20048;-70
2020/12/06 06:02:14;;;;;;;18.27;14.95;;;;;;;;;;5072823;28;20052;-67
2020/12/06 06:04:40;;;;;;;18.25;16.45;;;;;;;;;;5073057;28;20023;-69
2020/12/06 06:07:06;;;;;;;19.20;17.20;;;;;;;;;;5072528;28;20067;-71
2020/12/06 06:09:36;;;;;;;18.50;16.52;;;;;;;;;;5072906;28;20048;-69
2020/12/06 06:12:13;;;;;;;19.88;17.80;;;;;;;;;;5072247;28;20070;-70
2020/12/06 06:14:39;;;;;;;20.63;17.83;;;;;;;;;;5072781;28;20148;-66
2020/12/06 06:17:04;;;;;;;18.80;17.00;;;;;;;;;;5075408;28;20063;-72
2020/12/06 06:19:29;;;;;;;19.23;16.83;;;;;;;;;;5077530;28;20130;-73
2020/12/06 06:21:55;;;;;;;19.45;17.55;;;;;;;;;;5071730;28;20059;-73
2020/12/06 06:24:25;;;;;;;19.45;17.45;;;;;;;;;;5071338;28;20020;-73
2020/12/06 06:26:50;;;;;;;19.58;17.55;;;;;;;;;;5072296;28;20016;-71
2020/12/06 06:29:16;;;;;;;19.55;16.90;;;;;;;;;;5072637;28;20019;-73
2020/12/06 06:31:43;;;;;;;20.65;17.20;;;;;;;;;;5072824;28;20449;-75
2020/12/06 06:34:08;;;;;;;19.83;17.38;;;;;;;;;;5072855;28;20020;-74
2020/12/06 06:36:34;;;;;;;19.87;17.83;;;;;;;;;;5072563;28;20024;-73
2020/12/06 06:39:00;;;;;;;18.75;16.85;;;;;;;;;;5073394;28;20589;-74
2020/12/06 06:41:26;;;;;;;18.48;16.67;;;;;;;;;;5074895;28;20020;-73
2020/12/06 06:43:57;;;;;;;18.95;17.02;;;;;;;;;;5073224;28;20024;-72
2020/12/06 06:46:22;;;;;;;21.00;17.40;;;;;;;;;;5069714;28;20477;-72
2020/12/06 06:48:49;;;;;;;19.07;17.00;;;;;;;;;;5052789;28;20043;-74
2020/12/06 06:51:20;;;;;;;20.00;17.20;;;;;;;;;;5052547;28;20329;-73
2020/12/06 06:53:46;;;;;;;19.10;17.08;;;;;;;;;;5052813;28;20021;-73
2020/12/06 06:56:12;;;;;;;19.45;16.33;;;;;;;;;;5052272;28;20021;-74
2020/12/06 06:58:37;;;;;;;20.40;17.30;;;;;;;;;;5052426;28;20068;-74
2020/12/06 07:01:21;;;;;;;19.42;17.38;;;;;;;;;;5052308;28;20054;-74
2020/12/06 07:03:53;;;;;;;18.50;16.50;;;;;;;;;;5052439;28;20486;-74
2020/12/06 07:06:37;;;;;;;18.83;16.90;;;;;;;;;;5052216;28;20103;-74
2020/12/06 07:09:02;;;;;;;18.08;16.27;;;;;;;;;;5052334;28;20032;-74
2020/12/06 07:11:28;;;;;;;22.10;19.80;;;;;;;;;;5051411;28;20439;-74
2020/12/06 07:13:53;;;;;;;23.00;20.65;;;;;;;;;;5052173;28;20010;-73
2020/12/06 07:16:19;;;;;;;22.13;19.83;;;;;;;;;;5052367;28;20032;-74
2020/12/06 07:18:44;;;;;;;22.27;19.88;;;;;;;;;;5051843;28;20041;-72
2020/12/06 07:21:09;;;;;;;21.35;19.25;;;;;;;;;;5052020;28;20032;-68
2020/12/06 07:23:35;;;;;;;21.25;19.05;;;;;;;;;;5051671;28;20024;-69
2020/12/06 07:26:00;;;;;;;20.73;18.55;;;;;;;;;;5050646;28;20032;-68
2020/12/06 07:28:25;;;;;;;21.73;19.52;;;;;;;;;;5051925;28;20055;-69
2020/12/06 07:30:50;;;;;;;20.08;18.00;;;;;;;;;;5051783;28;20030;-68
2020/12/06 07:33:15;;;;;;;20.80;18.33;;;;;;;;;;5051494;28;20036;-68
2020/12/06 07:35:40;;;;;;;21.80;19.53;;;;;;;;;;5051646;28;20255;-67
2020/12/06 07:38:06;;;;;;;23.65;20.98;;;;;;;;;;5053416;28;20264;-67
2020/12/06 07:40:31;;;;;;;21.57;19.27;;;;;;;;;;5055823;28;20086;-70
2020/12/06 07:42:56;;;;;;;22.20;19.35;;;;;;;;;;5055670;28;20259;-68
2020/12/06 07:45:24;;;;;;;24.17;20.02;;;;;;;;;;5055731;28;20020;-68
2020/12/06 07:47:49;;;;;;;26.80;20.77;;;;;;;;;;5055870;28;20035;-68
2020/12/06 07:50:16;;;;;;;22.60;19.70;;;;;;;;;;5055924;28;20100;-69
2020/12/06 07:52:42;;;;;;;22.37;19.97;;;;;;;;;;5055468;28;20092;-69
2020/12/06 07:55:08;;;;;;;25.90;20.65;;;;;;;;;;5055796;28;20244;-67
2020/12/06 07:57:45;;;;;;;23.88;21.27;;;;;;;;;;5055832;28;20014;-68
2020/12/06 08:00:11;;;;;;;23.92;21.40;;;;;;;;;;5055512;28;20029;-68
2020/12/06 08:02:38;;;;;;;25.80;23.05;;;;;;;;;;5054887;28;20040;-68
2020/12/06 08:05:05;;;;;;;24.17;21.55;;;;;;;;;;5070614;28;20531;-69
2020/12/06 08:07:41;;;;;;;24.85;20.58;;;;;;;;;;5084802;28;20031;-69
2020/12/06 08:10:06;;;;;;;;;;;;;;;;;;5067196;28;20365;-69
2020/12/06 08:12:33;;;;;;;23.75;20.33;;;;;;;;;;5068490;28;19991;-69
2020/12/06 08:14:59;;;;;;;24.52;21.10;;;;;;;;;;5072579;28;20024;-71
2020/12/06 08:17:25;;;;;;;22.55;20.13;;;;;;;;;;5075190;28;20035;-69
2020/12/06 08:19:50;;;;;;;24.20;19.92;;;;;;;;;;5073302;28;20024;-69
2020/12/06 08:22:15;;;;;;;22.73;20.08;;;;;;;;;;5073407;28;20055;-69
2020/12/06 08:24:40;;;;;;;22.20;19.80;;;;;;;;;;5074092;28;20123;-69
2020/12/06 08:27:17;;;;;;;22.10;19.70;;;;;;;;;;5074660;28;20028;-69
2020/12/06 08:29:43;;;;;;;21.80;19.42;;;;;;;;;;5074526;28;20377;-69
2020/12/06 08:32:09;;;;;;;21.95;19.63;;;;;;;;;;5073996;28;20035;-69
2020/12/06 08:34:34;;;;;;;22.17;19.25;;;;;;;;;;5074266;28;20048;-69
2020/12/06 08:37:16;;;;;;;22.85;20.52;;;;;;;;;;5074293;28;20438;-69
2020/12/06 08:39:41;;;;;;;22.73;19.98;;;;;;;;;;5074508;28;20017;-69
2020/12/06 08:42:13;;;;;;;24.75;20.95;;;;;;;;;;5074255;28;20017;-69
2020/12/06 08:44:51;;;;;;;23.15;20.75;;;;;;;;;;5075271;28;20103;-68
2020/12/06 08:47:17;;;;;;;24.27;21.23;;;;;;;;;;5074517;28;20054;-69
2020/12/06 08:49:42;;;;;;;25.77;20.90;;;;;;;;;;5073922;28;20012;-70
2020/12/06 08:52:18;;;;;;;23.02;18.83;;;;;;;;;;5073768;28;20199;-69
2020/12/06 08:54:47;;;;;;;24.83;20.90;;;;;;;;;;5074202;28;20071;-69
2020/12/06 08:57:14;;;;;;;24.02;20.67;;;;;;;;;;5073568;28;20490;-70
2020/12/06 08:59:39;;;;;;;23.58;20.23;;;;;;;;;;5073721;28;20115;-70
2020/12/06 09:02:05;;;;;;;23.27;20.27;;;;;;;;;;5073359;28;20016;-68
2020/12/06 09:04:34;;;;;;;22.55;20.20;;;;;;;;;;5073552;28;20095;-68
2020/12/06 09:07:00;;;;;;;22.48;19.15;;;;;;;;;;5073405;28;20056;-68
2020/12/06 09:09:25;;;;;;;22.13;19.75;;;;;;;;;;5073335;28;20067;-69
2020/12/06 09:11:54;;;;;;;24.33;21.00;;;;;;;;;;5073421;28;20056;-69
2020/12/06 09:14:19;;;;;;;22.33;19.98;;;;;;;;;;5073643;28;20525;-68
2020/12/06 09:16:44;;;;;;;20.67;18.48;;;;;;;;;;5073143;28;20021;-69
2020/12/06 09:19:09;;;;;;;22.48;18.63;;;;;;;;;;5073524;28;20381;-68
2020/12/06 09:21:35;;;;;;;23.50;20.10;;;;;;;;;;5073347;28;20012;-67
2020/12/06 09:24:00;;;;;;;21.47;19.17;;;;;;;;;;5074221;28;20346;-70
2020/12/06 09:26:25;;;;;;;21.45;19.15;;;;;;;;;;5074057;28;20388;-69
2020/12/06 09:28:50;;;;;;;19.03;17.03;;;;;;;;;;5073727;28;20085;-72
2020/12/06 09:31:19;;;;;;;19.92;17.88;;;;;;;;;;5073856;28;20282;-69
2020/12/06 09:33:44;;;;;;;24.67;19.75;;;;;;;;;;5074110;28;20028;-70
2020/12/06 09:36:09;;;;;;;20.33;18.13;;;;;;;;;;5073928;28;20114;-71
2020/12/06 09:38:34;;;;;;;21.73;19.37;;;;;;;;;;5073899;28;20255;-72
2020/12/06 09:40:59;;;;;;;22.07;19.47;;;;;;;;;;5073511;28;20324;-73
2020/12/06 09:43:25;;;;;;;19.93;17.83;;;;;;;;;;5073078;28;20266;-67
2020/12/06 09:45:50;;;;;;;20.17;18.00;;;;;;;;;;5073583;28;20715;-67
2020/12/06 09:48:15;;;;;;;24.00;20.83;;;;;;;;;;5071080;28;20274;-68
2020/12/06 09:50:40;;;;;;;20.70;18.60;;;;;;;;;;5072884;28;20034;-68
2020/12/06 09:53:06;;;;;;;20.58;18.48;;;;;;;;;;5072532;28;20066;-68
2020/12/06 09:55:31;;;;;;;22.13;19.38;;;;;;;;;;5072922;28;20021;-67
2020/12/06 09:57:56;;;;;;;19.90;17.90;;;;;;;;;;5072711;28;20373;-67
2020/12/06 10:00:21;;;;;;;19.33;17.33;;;;;;;;;;5072691;28;20028;-68
2020/12/06 10:02:46;;;;;;;20.95;18.73;;;;;;;;;;5072342;28;20021;-66
2020/12/06 10:05:12;;;;;;;21.33;18.35;;;;;;;;;;5072941;28;20102;-68
2020/12/06 10:07:40;;;;;;;21.25;19.05;;;;;;;;;;5072432;28;20055;-67
2020/12/06 10:10:06;;;;;;;21.60;19.35;;;;;;;;;;5072523;28;20103;-69
2020/12/06 10:12:31;;;;;;;26.10;20.65;;;;;;;;;;5072127;28;20013;-67
2020/12/06 10:14:56;;;;;;;21.50;19.25;;;;;;;;;;5072291;28;20326;-70
2020/12/06 10:17:21;;;;;;;22.27;18.85;;;;;;;;;;5072698;28;20155;-71
2020/12/06 10:19:46;;;;;;;21.77;19.58;;;;;;;;;;5072197;28;20047;-75
2020/12/06 10:22:12;;;;;;;23.67;20.13;;;;;;;;;;5071836;28;20034;-67
2020/12/06 10:24:37;;;;;;;24.40;20.30;;;;;;;;;;5072077;28;20716;-71
2020/12/06 10:27:02;;;;;;;22.40;19.50;;;;;;;;;;5072269;28;20261;-69
2020/12/06 10:29:27;;;;;;;23.20;20.67;;;;;;;;;;5072092;28;20091;-72
2020/12/06 10:31:53;;;;;;;22.40;18.67;;;;;;;;;;5071575;28;20270;-70
2020/12/06 10:34:19;;;;;;;23.92;21.42;;;;;;;;;;5071866;28;20078;-71
2020/12/06 10:36:51;;;;;;;22.02;18.83;;;;;;;;;;5070296;28;20016;-69
2020/12/06 10:39:20;;;;;;;21.42;17.27;;;;;;;;;;5070779;28;20640;-72
2020/12/06 10:41:55;;;;;;;20.00;17.77;;;;;;;;;;5069889;28;20377;-72
2020/12/06 10:44:22;;;;;;;20.42;18.33;;;;;;;;;;5072371;28;20040;-71
2020/12/06 10:46:50;;;;;;;20.52;18.33;;;;;;;;;;5072445;28;20021;-73
2020/12/06 10:49:15;;;;;;;19.40;17.42;;;;;;;;;;5072652;28;20020;-70
2020/12/06 10:51:44;;;;;;;18.67;16.75;;;;;;;;;;5072227;28;20021;-70
2020/12/06 10:54:10;;;;;;;20.23;17.98;;;;;;;;;;5072251;28;20025;-71
2020/12/06 10:56:38;;;;;;;20.65;18.58;;;;;;;;;;5072359;28;20037;-70
2020/12/06 10:59:04;;;;;;;18.23;16.33;;;;;;;;;;5072301;28;20017;-69
2020/12/06 11:01:31;;;;;;;19.20;17.20;;;;;;;;;;5071565;28;20461;-71
2020/12/06 11:03:57;;;;;;;18.85;16.83;;;;;;;;;;5072412;28;20017;-69
2020/12/06 11:06:25;;;;;;;21.05;17.73;;;;;;;;;;5071998;28;20334;-71
2020/12/06 11:08:50;;;;;;;19.60;17.58;;;;;;;;;;5071890;28;20192;-71
2020/12/06 11:11:16;;;;;;;17.85;16.13;;;;;;;;;;5071941;28;20142;-71
2020/12/06 11:13:41;;;;;;;18.23;16.42;;;;;;;;;;5077355;28;20056;-69
2020/12/06 11:16:07;;;;;;;20.33;18.20;;;;;;;;;;5078455;28;20013;-69
2020/12/06 11:18:32;;;;;;;17.23;15.45;;;;;;;;;;5078796;28;20020;-69
2020/12/06 11:20:57;;;;;;;17.10;15.30;;;;;;;;;;5078068;28;20354;-69
2020/12/06 11:23:22;;;;;;;17.92;15.98;;;;;;;;;;5078120;28;20056;-70
2020/12/06 11:25:58;;;;;;;20.70;18.60;;;;;;;;;;5078281;28;20119;-69
2020/12/06 11:28:23;;;;;;;20.58;18.02;;;;;;;;;;5076722;28;20258;-70
2020/12/06 11:30:48;;;;;;;19.03;16.50;;;;;;;;;;5078053;28;20036;-71
2020/12/06 11:33:14;;;;;;;19.03;17.13;;;;;;;;;;5077863;28;20262;-71
2020/12/06 11:35:39;;;;;;;19.23;16.67;;;;;;;;;;5077965;28;20324;-71
2020/12/06 11:38:04;;;;;;;19.90;17.77;;;;;;;;;;5077182;28;20028;-70
2020/12/06 11:40:30;;;;;;;16.95;15.25;;;;;;;;;;5077788;28;20013;-71
2020/12/06 11:42:55;;;;;;;22.17;19.17;;;;;;;;;;5077189;28;20028;-69
2020/12/06 11:45:20;;;;;;;21.35;17.38;;;;;;;;;;5078219;28;20055;-70
2020/12/06 11:47:49;;;;;;;22.63;18.17;;;;;;;;;;5076934;28;20032;-70
2020/12/06 11:50:14;;;;;;;20.33;17.83;;;;;;;;;;5076572;28;20273;-70
2020/12/06 11:52:39;;;;;;;20.92;18.77;;;;;;;;;;5077695;28;20020;-69
2020/12/06 11:55:04;;;;;;;19.92;17.10;;;;;;;;;;5076746;28;20023;-70
2020/12/06 11:57:29;;;;;;;18.65;16.65;;;;;;;;;;5077850;28;20111;-69
2020/12/06 11:59:55;;;;;;;22.05;19.42;;;;;;;;;;5078537;28;20012;-73
2020/12/06 12:02:20;;;;;;;21.45;19.25;;;;;;;;;;5077765;28;20462;-68
2020/12/06 12:04:46;;;;;;;20.33;18.13;;;;;;;;;;5078477;28;20031;-69
2020/12/06 12:07:11;;;;;;;21.48;18.88;;;;;;;;;;5078630;28;20267;-68
2020/12/06 12:09:36;;;;;;;21.58;18.08;;;;;;;;;;5078435;28;20020;-70
2020/12/06 12:12:01;;;;;;;19.63;17.40;;;;;;;;;;5077462;28;20465;-68
2020/12/06 12:14:26;;;;;;;19.10;16.17;;;;;;;;;;5078706;28;20123;-70
2020/12/06 12:16:52;;;;;;;18.85;16.88;;;;;;;;;;5077858;28;20255;-71
2020/12/06 12:19:17;;;;;;;22.50;19.15;;;;;;;;;;5078186;28;20032;-70
2020/12/06 12:21:42;;;;;;;21.92;19.65;;;;;;;;;;5077825;28;20046;-74
2020/12/06 12:24:07;;;;;;;20.23;16.73;;;;;;;;;;5076094;28;20155;-73
2020/12/06 12:26:32;;;;;;;21.65;18.70;;;;;;;;;;5074445;28;20301;-72
2020/12/06 12:28:58;;;;;;;35.80;27.93;;;;;;;;;;5074781;28;20094;-71
2020/12/06 12:31:23;;;;;;;25.20;18.92;;;;;;;;;;5064907;28;20275;-72
2020/12/06 12:33:48;;;;;;;23.80;18.77;;;;;;;;;;5076095;28;20497;-71
2020/12/06 12:36:13;;;;;;;41.38;30.88;;;;;;;;;;5093300;28;20093;-75
2020/12/06 12:38:39;;;;;;;27.02;20.17;;;;;;;;;;5087077;28;20360;-76
2020/12/06 12:41:04;;;;;;;56.67;38.20;;;;;;;;;;5085574;28;20024;-77
2020/12/06 12:43:29;;;;;;;19.83;17.60;;;;;;;;;;5081762;28;20724;-76
2020/12/06 12:45:54;;;;;;;29.10;24.23;;;;;;;;;;5090613;28;20393;-72
2020/12/06 12:48:20;;;;;;;22.23;18.48;;;;;;;;;;5064965;28;20031;-72
2020/12/06 12:50:45;;;;;;;25.20;22.50;;;;;;;;;;5081854;28;20032;-73
2020/12/06 12:53:10;;;;;;;26.35;20.55;;;;;;;;;;5073797;28;20012;-73
2020/12/06 12:55:35;;;;;;;37.38;29.23;;;;;;;;;;5068594;28;20048;-73
2020/12/06 12:58:02;;;;;;;33.15;26.55;;;;;;;;;;5073704;28;20028;-72
2020/12/06 13:00:28;;;;;;;27.27;24.02;;;;;;;;;;5074622;28;20029;-71
2020/12/06 13:02:53;;;;;;;24.90;20.05;;;;;;;;;;5073787;28;20020;-72
2020/12/06 13:05:18;;;;;;;25.40;22.53;;;;;;;;;;5074323;28;20032;-73
2020/12/06 13:07:43;;;;;;;25.65;22.02;;;;;;;;;;5073826;28;20711;-71
2020/12/06 13:10:08;;;;;;;29.95;24.25;;;;;;;;;;5074128;28;20105;-71
2020/12/06 13:12:37;;;;;;;35.08;30.17;;;;;;;;;;5073868;28;20016;-74
2020/12/06 13:15:05;;;;;;;34.30;28.52;;;;;;;;;;5072382;28;20056;-70
2020/12/06 13:17:31;;;;;;;26.38;22.15;;;;;;;;;;5074863;28;20043;-73
2020/12/06 13:19:58;;;;;;;32.53;26.50;;;;;;;;;;5073966;28;20097;-72
2020/12/06 13:22:23;;;;;;;24.08;20.45;;;;;;;;;;5073403;28;20728;-71
2020/12/06 13:24:48;;;;;;;24.73;21.57;;;;;;;;;;5073809;28;20028;-73
2020/12/06 13:27:13;;;;;;;25.35;20.88;;;;;;;;;;5073629;28;20255;-72
2020/12/06 13:29:39;;;;;;;23.80;21.30;;;;;;;;;;5073958;28;20420;-71
2020/12/06 13:32:04;;;;;;;24.85;21.60;;;;;;;;;;5073996;28;20373;-75
2020/12/06 13:34:29;;;;;;;26.70;20.25;;;;;;;;;;5074015;28;20016;-71
2020/12/06 13:36:54;;;;;;;23.88;20.27;;;;;;;;;;5073225;28;20025;-70
2020/12/06 13:39:19;;;;;;;24.23;20.20;;;;;;;;;;5073308;28;20043;-71
2020/12/06 13:41:44;;;;;;;22.77;19.33;;;;;;;;;;5072452;28;20020;-74
2020/12/06 13:44:10;;;;;;;23.40;20.83;;;;;;;;;;5067725;28;20612;-69
2020/12/06 13:46:35;;;;;;;22.27;19.92;;;;;;;;;;5054060;28;20295;-76
2020/12/06 13:49:00;;;;;;;21.15;18.55;;;;;;;;;;5052960;28;20073;-71
2020/12/06 13:51:25;;;;;;;24.60;19.70;;;;;;;;;;5064473;28;20020;-72
2020/12/06 13:53:51;;;;;;;22.75;17.45;;;;;;;;;;5083255;28;20521;-74
2020/12/06 13:56:16;;;;;;;21.02;18.25;;;;;;;;;;5073604;28;20017;-76
2020/12/06 13:58:41;;;;;;;22.17;18.98;;;;;;;;;;5073119;28;20028;-74
2020/12/06 14:01:07;;;;;;;24.80;19.60;;;;;;;;;;5073440;28;20024;-74
2020/12/06 14:03:32;;;;;;;20.63;17.63;;;;;;;;;;5071884;28;20016;-77
2020/12/06 14:05:58;;;;;;;21.10;18.25;;;;;;;;;;5071997;28;20066;-74
2020/12/06 14:08:23;;;;;;;21.20;17.27;;;;;;;;;;5073026;28;20423;-75
2020/12/06 14:10:48;;;;;;;22.73;17.95;;;;;;;;;;5072834;28;20312;-74